sensor_id;sensor_type;location;lat;lon;timestamp;pressure;altitude;pressure_sealevel;temperature;humidity
67517;BME280;54359;59.124;37.910;2023-02-28T00:01:55;99002.84;;;-5.96;73.55
67517;BME280;54359;59.124;37.910;2023-02-28T00:04:27;99076.53;;;-5.63;73.08
67517;BME280;54359;59.124;37.910;2023-02-28T00:07:20;99058.63;;;-5.69;73.81
67517;BME280;54359;59.124;37.910;2023-02-28T00:09:57;98987.38;;;-6.04;73.11
67517;BME280;54359;59.124;37.910;2023-02-28T00:12:35;99003.28;;;-5.89;73.65
67517;BME280;54359;59.124;37.910;2023-02-28T00:15:10;99053.31;;;-5.60;73.26
67517;BME280;54359;59.124;37.910;2023-02-28T00:17:45;99040.88;;;-5.59;73.96
67517;BME280;54359;59.124;37.910;2023-02-28T00:20:12;98987.25;;;-5.77;73.29
67517;BME280;54359;59.124;37.910;2023-02-28T00:22:47;99005.84;;;-5.59;73.91
67517;BME280;54359;59.124;37.910;2023-02-28T00:25:24;98991.69;;;-5.58;73.50
67517;BME280;54359;59.124;37.910;2023-02-28T00:27:53;98985.56;;;-5.63;73.87
67517;BME280;54359;59.124;37.910;2023-02-28T00:30:24;98948.59;;;-5.82;73.93
67517;BME280;54359;59.124;37.910;2023-02-28T00:32:56;98983.50;;;-5.56;72.96
67517;BME280;54359;59.124;37.910;2023-02-28T00:35:24;98988.75;;;-5.66;73.12
67517;BME280;54359;59.124;37.910;2023-02-28T00:37:55;98959.22;;;-5.72;73.43
67517;BME280;54359;59.124;37.910;2023-02-28T00:40:30;99001.28;;;-5.51;73.75
67517;BME280;54359;59.124;37.910;2023-02-28T00:42:57;98985.56;;;-5.49;73.91
67517;BME280;54359;59.124;37.910;2023-02-28T00:45:23;98916.22;;;-5.79;73.24
67517;BME280;54359;59.124;37.910;2023-02-28T00:48:06;98938.94;;;-5.47;73.87
67517;BME280;54359;59.124;37.910;2023-02-28T00:50:33;98940.16;;;-5.55;73.83
67517;BME280;54359;59.124;37.910;2023-02-28T00:53:09;98882.59;;;-5.84;73.26
67517;BME280;54359;59.124;37.910;2023-02-28T00:55:42;98911.91;;;-5.52;74.00
67517;BME280;54359;59.124;37.910;2023-02-28T00:58:10;98931.78;;;-5.40;73.63
67517;BME280;54359;59.124;37.910;2023-02-28T01:00:39;98929.28;;;-5.40;74.12
67517;BME280;54359;59.124;37.910;2023-02-28T01:03:17;98902.78;;;-5.37;73.26
67517;BME280;54359;59.124;37.910;2023-02-28T01:05:48;98903.47;;;-5.39;74.01
67517;BME280;54359;59.124;37.910;2023-02-28T01:08:23;98915.88;;;-5.26;74.26
67517;BME280;54359;59.124;37.910;2023-02-28T01:11:13;98941.63;;;-5.29;73.31
67517;BME280;54359;59.124;37.910;2023-02-28T01:13:50;98913.50;;;-5.39;73.96
67517;BME280;54359;59.124;37.910;2023-02-28T01:16:21;98940.94;;;-5.26;73.64
67517;BME280;54359;59.124;37.910;2023-02-28T01:18:49;98923.78;;;-5.50;73.82
67517;BME280;54359;59.124;37.910;2023-02-28T01:21:20;98890.94;;;-5.54;73.30
67517;BME280;54359;59.124;37.910;2023-02-28T01:23:47;98975.56;;;-5.34;73.82
67517;BME280;54359;59.124;37.910;2023-02-28T01:26:22;98948.28;;;-5.29;73.85
67517;BME280;54359;59.124;37.910;2023-02-28T01:28:52;98923.81;;;-5.48;73.90
67517;BME280;54359;59.124;37.910;2023-02-28T01:31:25;98917.81;;;-5.37;73.77
67517;BME280;54359;59.124;37.910;2023-02-28T01:33:52;98941.53;;;-5.45;74.27
67517;BME280;54359;59.124;37.910;2023-02-28T01:36:23;98914.50;;;-5.51;74.31
67517;BME280;54359;59.124;37.910;2023-02-28T01:38:59;98983.41;;;-5.28;73.74
67517;BME280;54359;59.124;37.910;2023-02-28T01:41:41;98925.81;;;-5.28;74.55
67517;BME280;54359;59.124;37.910;2023-02-28T01:47:34;98897.59;;;-5.25;73.60
67517;BME280;54359;59.124;37.910;2023-02-28T01:53:08;98893.94;;;-5.30;74.15
67517;BME280;54359;59.124;37.910;2023-02-28T01:55:37;98889.03;;;-5.29;74.66
67517;BME280;54359;59.124;37.910;2023-02-28T01:58:06;98882.22;;;-5.31;74.06
67517;BME280;54359;59.124;37.910;2023-02-28T02:00:38;98881.00;;;-5.38;74.24
67517;BME280;54359;59.124;37.910;2023-02-28T02:03:11;98901.44;;;-5.15;74.36
67517;BME280;54359;59.124;37.910;2023-02-28T02:05:41;98850.66;;;-5.13;74.76
67517;BME280;54359;59.124;37.910;2023-02-28T02:08:12;98844.28;;;-5.22;74.72
67517;BME280;54359;59.124;37.910;2023-02-28T02:10:55;98859.28;;;-5.08;74.87
67517;BME280;54359;59.124;37.910;2023-02-28T02:14:36;98859.38;;;-5.06;74.44
67517;BME280;54359;59.124;37.910;2023-02-28T02:16:53;98850.38;;;-5.02;74.25
67517;BME280;54359;59.124;37.910;2023-02-28T02:23:27;98799.19;;;-5.22;74.67
67517;BME280;54359;59.124;37.910;2023-02-28T02:27:06;98810.44;;;-4.99;74.68
67517;BME280;54359;59.124;37.910;2023-02-28T02:44:50;98744.88;;;-5.07;74.75
67517;BME280;54359;59.124;37.910;2023-02-28T02:47:50;98773.66;;;-4.84;75.28
67517;BME280;54359;59.124;37.910;2023-02-28T03:50:53;98632.97;;;-4.56;75.54
67517;BME280;54359;59.124;37.910;2023-02-28T03:53:44;98544.03;;;-4.82;75.88
67517;BME280;54359;59.124;37.910;2023-02-28T03:56:51;98636.06;;;-4.43;75.40
67517;BME280;54359;59.124;37.910;2023-02-28T03:59:44;98592.75;;;-4.59;74.96
67517;BME280;54359;59.124;37.910;2023-02-28T04:02:35;98581.97;;;-4.56;75.35
67517;BME280;54359;59.124;37.910;2023-02-28T04:06:01;98563.03;;;-4.51;75.23
67517;BME280;54359;59.124;37.910;2023-02-28T04:09:03;98609.72;;;-4.17;75.50
67517;BME280;54359;59.124;37.910;2023-02-28T04:11:45;98571.25;;;-4.36;75.43
67517;BME280;54359;59.124;37.910;2023-02-28T04:14:29;98623.47;;;-4.09;75.39
67517;BME280;54359;59.124;37.910;2023-02-28T04:16:57;98589.84;;;-4.13;75.27
67517;BME280;54359;59.124;37.910;2023-02-28T04:19:51;98537.34;;;-4.46;75.50
67517;BME280;54359;59.124;37.910;2023-02-28T04:22:17;98580.25;;;-4.03;75.48
67517;BME280;54359;59.124;37.910;2023-02-28T04:24:50;98509.84;;;-4.44;75.11
67517;BME280;54359;59.124;37.910;2023-02-28T04:27:26;98556.59;;;-4.09;75.57
67517;BME280;54359;59.124;37.910;2023-02-28T04:30:15;98564.63;;;-3.98;75.45
67517;BME280;54359;59.124;37.910;2023-02-28T04:33:01;98533.53;;;-4.19;75.87
67517;BME280;54359;59.124;37.910;2023-02-28T04:35:33;98488.47;;;-4.36;74.76
67517;BME280;54359;59.124;37.910;2023-02-28T04:38:03;98541.94;;;-3.99;75.49
67517;BME280;54359;59.124;37.910;2023-02-28T04:40:40;98505.34;;;-4.14;75.77
67517;BME280;54359;59.124;37.910;2023-02-28T04:43:40;98529.78;;;-3.90;75.91
67517;BME280;54359;59.124;37.910;2023-02-28T04:46:43;98509.78;;;-3.89;75.60
67517;BME280;54359;59.124;37.910;2023-02-28T04:49:29;98477.22;;;-4.07;75.64
67517;BME280;54359;59.124;37.910;2023-02-28T04:52:22;98495.13;;;-3.79;75.33
67517;BME280;54359;59.124;37.910;2023-02-28T04:55:00;98471.34;;;-4.07;75.13
67517;BME280;54359;59.124;37.910;2023-02-28T04:57:27;98515.34;;;-3.76;75.14
67517;BME280;54359;59.124;37.910;2023-02-28T04:59:53;98509.66;;;-3.72;75.90
67517;BME280;54359;59.124;37.910;2023-02-28T05:02:46;98504.44;;;-3.77;75.53
67517;BME280;54359;59.124;37.910;2023-02-28T05:05:18;98435.28;;;-4.09;75.90
67517;BME280;54359;59.124;37.910;2023-02-28T05:07:51;98449.75;;;-4.03;75.71
67517;BME280;54359;59.124;37.910;2023-02-28T05:10:28;98492.94;;;-3.72;76.03
67517;BME280;54359;59.124;37.910;2023-02-28T05:13:04;98431.47;;;-4.01;75.67
67517;BME280;54359;59.124;37.910;2023-02-28T05:15:59;98419.97;;;-3.96;75.89
67517;BME280;54359;59.124;37.910;2023-02-28T05:19:01;98509.28;;;-3.41;76.28
67517;BME280;54359;59.124;37.910;2023-02-28T05:22:35;98444.97;;;-3.78;75.88
67517;BME280;54359;59.124;37.910;2023-02-28T05:25:48;98519.81;;;-3.50;75.09
67517;BME280;54359;59.124;37.910;2023-02-28T05:28:27;98514.53;;;-3.36;75.58
67517;BME280;54359;59.124;37.910;2023-02-28T05:35:00;98512.78;;;-3.18;75.43
67517;BME280;54359;59.124;37.910;2023-02-28T05:37:28;98493.63;;;-3.14;75.37
67517;BME280;54359;59.124;37.910;2023-02-28T05:39:54;98459.03;;;-3.21;75.69
67517;BME280;54359;59.124;37.910;2023-02-28T05:42:23;98482.22;;;-3.06;75.67
67517;BME280;54359;59.124;37.910;2023-02-28T05:44:51;98476.97;;;-3.12;75.57
67517;BME280;54359;59.124;37.910;2023-02-28T05:47:17;98470.59;;;-3.04;75.91
67517;BME280;54359;59.124;37.910;2023-02-28T05:49:43;98458.09;;;-3.03;75.64
67517;BME280;54359;59.124;37.910;2023-02-28T05:52:09;98463.84;;;-2.84;75.86
67517;BME280;54359;59.124;37.910;2023-02-28T05:54:36;98469.00;;;-2.81;75.55
67517;BME280;54359;59.124;37.910;2023-02-28T05:57:05;98456.66;;;-2.75;76.29
67517;BME280;54359;59.124;37.910;2023-02-28T05:59:34;98463.16;;;-2.80;76.46
67517;BME280;54359;59.124;37.910;2023-02-28T06:02:00;98441.59;;;-2.73;75.31
67517;BME280;54359;59.124;37.910;2023-02-28T06:04:28;98442.59;;;-2.70;76.13
67517;BME280;54359;59.124;37.910;2023-02-28T06:06:54;98424.91;;;-2.71;75.79
67517;BME280;54359;59.124;37.910;2023-02-28T06:09:20;98449.63;;;-2.61;75.99
67517;BME280;54359;59.124;37.910;2023-02-28T06:11:46;98417.09;;;-2.56;75.99
67517;BME280;54359;59.124;37.910;2023-02-28T06:14:15;98421.50;;;-2.51;75.91
67517;BME280;54359;59.124;37.910;2023-02-28T06:16:42;98414.06;;;-2.48;76.06
67517;BME280;54359;59.124;37.910;2023-02-28T06:19:09;98392.00;;;-2.55;76.04
67517;BME280;54359;59.124;37.910;2023-02-28T06:21:36;98411.09;;;-2.37;76.02
67517;BME280;54359;59.124;37.910;2023-02-28T06:24:04;98384.16;;;-2.40;76.61
67517;BME280;54359;59.124;37.910;2023-02-28T06:26:32;98408.38;;;-2.19;76.33
67517;BME280;54359;59.124;37.910;2023-02-28T06:28:59;98379.09;;;-2.17;76.31
67517;BME280;54359;59.124;37.910;2023-02-28T06:31:26;98378.41;;;-2.12;76.10
67517;BME280;54359;59.124;37.910;2023-02-28T06:33:56;98388.75;;;-2.04;76.58
67517;BME280;54359;59.124;37.910;2023-02-28T06:36:22;98413.09;;;-2.05;75.75
67517;BME280;54359;59.124;37.910;2023-02-28T06:38:49;98389.31;;;-2.13;76.23
67517;BME280;54359;59.124;37.910;2023-02-28T06:41:24;98400.69;;;-1.98;76.20
67517;BME280;54359;59.124;37.910;2023-02-28T06:43:59;98396.63;;;-1.95;76.15
67517;BME280;54359;59.124;37.910;2023-02-28T06:46:29;98366.91;;;-2.05;76.00
67517;BME280;54359;59.124;37.910;2023-02-28T06:48:55;98396.72;;;-1.92;76.31
67517;BME280;54359;59.124;37.910;2023-02-28T06:51:21;98412.81;;;-1.88;76.20
67517;BME280;54359;59.124;37.910;2023-02-28T06:53:50;98380.66;;;-1.95;76.48
67517;BME280;54359;59.124;37.910;2023-02-28T06:56:20;98419.03;;;-1.78;76.40
67517;BME280;54359;59.124;37.910;2023-02-28T06:58:47;98403.03;;;-1.79;76.46
67517;BME280;54359;59.124;37.910;2023-02-28T07:01:15;98402.94;;;-1.82;76.19
67517;BME280;54359;59.124;37.910;2023-02-28T07:03:47;98445.91;;;-1.77;76.23
67517;BME280;54359;59.124;37.910;2023-02-28T07:06:21;98395.06;;;-1.91;75.92
67517;BME280;54359;59.124;37.910;2023-02-28T07:08:52;98407.97;;;-1.82;75.88
67517;BME280;54359;59.124;37.910;2023-02-28T07:11:21;98392.03;;;-1.81;76.47
67517;BME280;54359;59.124;37.910;2023-02-28T07:13:49;98393.16;;;-1.73;76.36
67517;BME280;54359;59.124;37.910;2023-02-28T07:16:17;98377.75;;;-1.82;76.48
67517;BME280;54359;59.124;37.910;2023-02-28T07:18:46;98385.97;;;-1.62;76.05
67517;BME280;54359;59.124;37.910;2023-02-28T07:21:15;98384.78;;;-1.48;76.25
67517;BME280;54359;59.124;37.910;2023-02-28T07:23:44;98385.88;;;-1.39;76.54
67517;BME280;54359;59.124;37.910;2023-02-28T07:26:13;98373.16;;;-1.43;76.43
67517;BME280;54359;59.124;37.910;2023-02-28T07:28:44;98414.19;;;-1.19;76.21
67517;BME280;54359;59.124;37.910;2023-02-28T07:31:12;98404.28;;;-1.15;76.17
67517;BME280;54359;59.124;37.910;2023-02-28T07:33:41;98417.88;;;-1.10;76.25
67517;BME280;54359;59.124;37.910;2023-02-28T07:36:13;98408.69;;;-1.08;76.60
67517;BME280;54359;59.124;37.910;2023-02-28T07:38:45;98418.44;;;-0.91;76.37
67517;BME280;54359;59.124;37.910;2023-02-28T07:41:14;98410.75;;;-0.96;76.16
67517;BME280;54359;59.124;37.910;2023-02-28T07:43:41;98417.97;;;-0.79;76.65
67517;BME280;54359;59.124;37.910;2023-02-28T07:46:11;98416.66;;;-0.67;76.66
67517;BME280;54359;59.124;37.910;2023-02-28T07:48:38;98429.50;;;-0.59;76.53
67517;BME280;54359;59.124;37.910;2023-02-28T07:51:04;98418.75;;;-0.52;76.29
67517;BME280;54359;59.124;37.910;2023-02-28T07:53:30;98400.44;;;-0.46;76.50
67517;BME280;54359;59.124;37.910;2023-02-28T07:56:03;98417.47;;;-0.39;76.19
67517;BME280;54359;59.124;37.910;2023-02-28T07:58:30;98455.66;;;-0.28;76.50
67517;BME280;54359;59.124;37.910;2023-02-28T08:01:16;98443.25;;;-0.21;76.28
67517;BME280;54359;59.124;37.910;2023-02-28T08:03:48;98424.22;;;-0.08;76.56
67517;BME280;54359;59.124;37.910;2023-02-28T08:06:20;98433.66;;;-0.01;76.09
67517;BME280;54359;59.124;37.910;2023-02-28T08:08:50;98416.03;;;0.01;76.69
67517;BME280;54359;59.124;37.910;2023-02-28T08:11:20;98405.88;;;-0.02;76.68
67517;BME280;54359;59.124;37.910;2023-02-28T08:13:47;98420.69;;;0.17;76.37
67517;BME280;54359;59.124;37.910;2023-02-28T08:16:17;98417.34;;;0.18;76.64
67517;BME280;54359;59.124;37.910;2023-02-28T08:18:51;98432.84;;;0.31;76.75
67517;BME280;54359;59.124;37.910;2023-02-28T08:21:20;98426.00;;;0.27;76.35
67517;BME280;54359;59.124;37.910;2023-02-28T08:23:50;98434.06;;;0.45;76.75
67517;BME280;54359;59.124;37.910;2023-02-28T08:26:24;98465.59;;;0.59;76.70
67517;BME280;54359;59.124;37.910;2023-02-28T08:28:49;98431.16;;;0.65;76.50
67517;BME280;54359;59.124;37.910;2023-02-28T08:31:17;98439.75;;;0.71;75.80
67517;BME280;54359;59.124;37.910;2023-02-28T08:33:44;98419.59;;;0.74;76.19
67517;BME280;54359;59.124;37.910;2023-02-28T08:36:19;98430.72;;;0.81;76.19
67517;BME280;54359;59.124;37.910;2023-02-28T08:38:49;98412.31;;;0.87;76.36
67517;BME280;54359;59.124;37.910;2023-02-28T08:41:18;98404.31;;;1.06;76.24
67517;BME280;54359;59.124;37.910;2023-02-28T08:43:51;98416.56;;;1.26;76.21
67517;BME280;54359;59.124;37.910;2023-02-28T08:46:20;98409.16;;;1.35;76.12
67517;BME280;54359;59.124;37.910;2023-02-28T08:48:53;98449.31;;;1.57;76.02
67517;BME280;54359;59.124;37.910;2023-02-28T08:51:23;98409.28;;;1.41;75.45
67517;BME280;54359;59.124;37.910;2023-02-28T08:53:58;98442.41;;;1.50;75.26
67517;BME280;54359;59.124;37.910;2023-02-28T08:56:27;98415.91;;;1.34;75.26
67517;BME280;54359;59.124;37.910;2023-02-28T08:59:00;98407.94;;;1.17;74.91
67517;BME280;54359;59.124;37.910;2023-02-28T09:01:30;98438.41;;;1.22;75.67
67517;BME280;54359;59.124;37.910;2023-02-28T09:03:59;98437.38;;;1.14;75.17
67517;BME280;54359;59.124;37.910;2023-02-28T09:06:27;98448.09;;;1.04;74.81
67517;BME280;54359;59.124;37.910;2023-02-28T09:08:59;98473.13;;;0.91;74.89
67517;BME280;54359;59.124;37.910;2023-02-28T09:11:28;98433.47;;;0.57;74.55
67517;BME280;54359;59.124;37.910;2023-02-28T09:13:55;98463.25;;;0.67;74.73
67517;BME280;54359;59.124;37.910;2023-02-28T09:16:24;98433.28;;;0.48;75.10
67517;BME280;54359;59.124;37.910;2023-02-28T09:18:53;98474.56;;;0.82;75.14
67517;BME280;54359;59.124;37.910;2023-02-28T09:21:21;98426.00;;;0.60;74.87
67517;BME280;54359;59.124;37.910;2023-02-28T09:24:04;98486.06;;;1.04;74.73
67517;BME280;54359;59.124;37.910;2023-02-28T09:26:31;98480.44;;;1.15;74.92
67517;BME280;54359;59.124;37.910;2023-02-28T09:29:00;98459.25;;;1.12;74.35
67517;BME280;54359;59.124;37.910;2023-02-28T09:31:28;98478.66;;;1.11;74.47
67517;BME280;54359;59.124;37.910;2023-02-28T09:33:58;98464.25;;;1.09;74.62
67517;BME280;54359;59.124;37.910;2023-02-28T09:36:26;98460.84;;;1.07;73.88
67517;BME280;54359;59.124;37.910;2023-02-28T09:38:54;98495.09;;;0.94;73.34
67517;BME280;54359;59.124;37.910;2023-02-28T09:41:23;98480.66;;;0.88;73.32
67517;BME280;54359;59.124;37.910;2023-02-28T09:43:57;98501.63;;;0.86;73.03
67517;BME280;54359;59.124;37.910;2023-02-28T09:46:48;98486.44;;;0.84;73.60
67517;BME280;54359;59.124;37.910;2023-02-28T09:49:23;98447.59;;;0.49;72.68
67517;BME280;54359;59.124;37.910;2023-02-28T09:52:05;98498.84;;;0.75;72.49
67517;BME280;54359;59.124;37.910;2023-02-28T09:54:42;98504.84;;;0.78;72.92
67517;BME280;54359;59.124;37.910;2023-02-28T09:57:19;98456.81;;;0.47;72.42
67517;BME280;54359;59.124;37.910;2023-02-28T10:00:33;98512.00;;;0.63;72.85
67517;BME280;54359;59.124;37.910;2023-02-28T10:03:51;98516.19;;;0.61;72.34
67517;BME280;54359;59.124;37.910;2023-02-28T10:06:55;98508.56;;;0.59;72.48
67517;BME280;54359;59.124;37.910;2023-02-28T10:10:07;98475.97;;;0.37;72.17
67517;BME280;54359;59.124;37.910;2023-02-28T10:13:02;98515.22;;;0.56;72.21
67517;BME280;54359;59.124;37.910;2023-02-28T10:16:05;98521.94;;;0.55;72.12
67517;BME280;54359;59.124;37.910;2023-02-28T10:19:28;98499.72;;;0.44;72.08
67517;BME280;54359;59.124;37.910;2023-02-28T10:22:17;98519.63;;;0.31;71.51
67517;BME280;54359;59.124;37.910;2023-02-28T10:24:48;98501.75;;;0.25;71.54
67517;BME280;54359;59.124;37.910;2023-02-28T10:27:24;98494.47;;;0.36;71.40
67517;BME280;54359;59.124;37.910;2023-02-28T10:29:56;98492.03;;;0.40;71.31
67517;BME280;54359;59.124;37.910;2023-02-28T10:32:32;98494.94;;;0.54;71.32
67517;BME280;54359;59.124;37.910;2023-02-28T10:35:22;98500.75;;;0.50;70.81
67517;BME280;54359;59.124;37.910;2023-02-28T10:37:58;98507.22;;;0.40;70.81
67517;BME280;54359;59.124;37.910;2023-02-28T10:40:33;98509.72;;;0.39;71.11
67517;BME280;54359;59.124;37.910;2023-02-28T10:46:09;98520.59;;;0.68;70.96
67517;BME280;54359;59.124;37.910;2023-02-28T10:48:45;98522.59;;;0.80;71.23
67517;BME280;54359;59.124;37.910;2023-02-28T10:51:19;98523.44;;;0.80;71.07
67517;BME280;54359;59.124;37.910;2023-02-28T10:53:50;98510.28;;;0.94;71.42
67517;BME280;54359;59.124;37.910;2023-02-28T10:56:21;98518.78;;;0.97;70.47
67517;BME280;54359;59.124;37.910;2023-02-28T11:04:16;98508.84;;;0.38;70.06
67517;BME280;54359;59.124;37.910;2023-02-28T11:06:45;98524.56;;;0.28;69.72
67517;BME280;54359;59.124;37.910;2023-02-28T11:09:39;98548.09;;;0.26;69.70
67517;BME280;54359;59.124;37.910;2023-02-28T11:12:27;98531.06;;;0.20;70.14
67517;BME280;54359;59.124;37.910;2023-02-28T11:15:04;98533.47;;;0.15;70.10
67517;BME280;54359;59.124;37.910;2023-02-28T11:17:34;98537.94;;;0.24;69.93
67517;BME280;54359;59.124;37.910;2023-02-28T11:20:10;98536.69;;;0.40;70.20
67517;BME280;54359;59.124;37.910;2023-02-28T11:22:45;98526.44;;;0.66;70.37
67517;BME280;54359;59.124;37.910;2023-02-28T11:25:26;98554.72;;;0.84;69.66
67517;BME280;54359;59.124;37.910;2023-02-28T11:27:58;98540.63;;;1.27;70.32
67517;BME280;54359;59.124;37.910;2023-02-28T11:30:39;98529.56;;;1.99;69.97
67517;BME280;54359;59.124;37.910;2023-02-28T11:33:29;98496.72;;;2.47;68.97
67517;BME280;54359;59.124;37.910;2023-02-28T11:36:03;98537.72;;;3.18;69.25
67517;BME280;54359;59.124;37.910;2023-02-28T11:38:32;98543.34;;;3.54;68.74
67517;BME280;54359;59.124;37.910;2023-02-28T11:43:50;98539.94;;;3.00;68.23
67517;BME280;54359;59.124;37.910;2023-02-28T11:49:23;98550.53;;;2.33;68.85
67517;BME280;54359;59.124;37.910;2023-02-28T11:52:02;98563.28;;;2.36;68.47
67517;BME280;54359;59.124;37.910;2023-02-28T11:55:25;98570.34;;;2.95;69.64
67517;BME280;54359;59.124;37.910;2023-02-28T11:58:02;98548.78;;;3.75;68.90
67517;BME280;54359;59.124;37.910;2023-02-28T12:06:57;98551.63;;;4.69;66.93
67517;BME280;54359;59.124;37.910;2023-02-28T12:21:53;98575.16;;;1.60;67.73
67517;BME280;54359;59.124;37.910;2023-02-28T12:24:37;98580.97;;;1.56;68.67
67517;BME280;54359;59.124;37.910;2023-02-28T12:27:09;98573.47;;;1.60;67.97
67517;BME280;54359;59.124;37.910;2023-02-28T12:32:32;98597.44;;;1.05;66.98
67517;BME280;54359;59.124;37.910;2023-02-28T12:35:19;98606.53;;;0.67;67.61
67517;BME280;54359;59.124;37.910;2023-02-28T12:37:57;98544.88;;;0.01;67.41
67517;BME280;54359;59.124;37.910;2023-02-28T12:40:32;98599.16;;;0.15;67.86
67517;BME280;54359;59.124;37.910;2023-02-28T12:43:05;98615.53;;;-0.01;67.66
67517;BME280;54359;59.124;37.910;2023-02-28T12:45:50;98622.13;;;-0.06;67.98
67517;BME280;54359;59.124;37.910;2023-02-28T12:48:40;98614.59;;;-0.04;68.24
67517;BME280;54359;59.124;37.910;2023-02-28T12:51:08;98600.03;;;0.16;68.05
67517;BME280;54359;59.124;37.910;2023-02-28T13:02:09;98613.75;;;0.24;67.42
67517;BME280;54359;59.124;37.910;2023-02-28T13:10:17;98607.00;;;-0.33;67.70
67517;BME280;54359;59.124;37.910;2023-02-28T13:12:54;98611.47;;;-0.24;67.22
67517;BME280;54359;59.124;37.910;2023-02-28T13:15:27;98618.28;;;-0.22;67.48
67517;BME280;54359;59.124;37.910;2023-02-28T13:18:00;98607.94;;;-0.02;67.51
67517;BME280;54359;59.124;37.910;2023-02-28T13:20:34;98612.22;;;0.01;67.32
67517;BME280;54359;59.124;37.910;2023-02-28T13:23:01;98634.47;;;0.12;67.49
67517;BME280;54359;59.124;37.910;2023-02-28T13:28:02;98621.72;;;0.09;67.04
67517;BME280;54359;59.124;37.910;2023-02-28T13:33:30;98624.91;;;0.02;66.80
67517;BME280;54359;59.124;37.910;2023-02-28T13:39:52;98606.84;;;-0.10;66.98
67517;BME280;54359;59.124;37.910;2023-02-28T13:47:48;98622.22;;;-0.30;67.00
67517;BME280;54359;59.124;37.910;2023-02-28T13:53:21;98648.28;;;-0.56;67.08
67517;BME280;54359;59.124;37.910;2023-02-28T13:56:19;98660.22;;;-0.78;66.71
67517;BME280;54359;59.124;37.910;2023-02-28T13:58:56;98639.75;;;-1.10;66.40
67517;BME280;54359;59.124;37.910;2023-02-28T14:06:36;98640.84;;;-1.27;67.22
67517;BME280;54359;59.124;37.910;2023-02-28T14:09:21;98650.97;;;-1.26;66.93
67517;BME280;54359;59.124;37.910;2023-02-28T14:11:49;98660.09;;;-1.29;67.06
67517;BME280;54359;59.124;37.910;2023-02-28T14:17:02;98649.59;;;-1.40;66.60
67517;BME280;54359;59.124;37.910;2023-02-28T14:19:31;98666.16;;;-1.47;67.13
67517;BME280;54359;59.124;37.910;2023-02-28T14:38:35;98647.84;;;-1.65;67.16
67517;BME280;54359;59.124;37.910;2023-02-28T14:41:06;98674.03;;;-1.62;66.73
67517;BME280;54359;59.124;37.910;2023-02-28T14:44:22;98657.38;;;-1.58;66.50
67517;BME280;54359;59.124;37.910;2023-02-28T14:46:56;98653.94;;;-1.60;66.75
67517;BME280;54359;59.124;37.910;2023-02-28T14:49:43;98656.31;;;-1.63;66.84
67517;BME280;54359;59.124;37.910;2023-02-28T14:52:21;98656.31;;;-1.63;67.13
67517;BME280;54359;59.124;37.910;2023-02-28T14:55:06;98647.84;;;-1.65;66.91
67517;BME280;54359;59.124;37.910;2023-02-28T14:57:41;98669.97;;;-1.58;66.89
67517;BME280;54359;59.124;37.910;2023-02-28T15:00:25;98660.50;;;-1.64;67.01
67517;BME280;54359;59.124;37.910;2023-02-28T15:02:52;98649.97;;;-1.76;66.95
67517;BME280;54359;59.124;37.910;2023-02-28T15:05:33;98652.59;;;-1.73;67.08
67517;BME280;54359;59.124;37.910;2023-02-28T15:08:04;98681.97;;;-1.73;66.46
67517;BME280;54359;59.124;37.910;2023-02-28T15:10:32;98669.16;;;-1.79;66.90
67517;BME280;54359;59.124;37.910;2023-02-28T15:13:09;98694.09;;;-1.86;66.68
67517;BME280;54359;59.124;37.910;2023-02-28T15:15:44;98708.88;;;-1.95;66.17
67517;BME280;54359;59.124;37.910;2023-02-28T15:20:50;98693.81;;;-2.14;66.01
67517;BME280;54359;59.124;37.910;2023-02-28T15:23:21;98669.00;;;-2.26;66.42
67517;BME280;54359;59.124;37.910;2023-02-28T15:25:49;98687.31;;;-2.30;66.57
67517;BME280;54359;59.124;37.910;2023-02-28T15:28:55;98658.59;;;-2.56;66.27
67517;BME280;54359;59.124;37.910;2023-02-28T15:31:32;98668.34;;;-2.43;66.53
67517;BME280;54359;59.124;37.910;2023-02-28T15:34:04;98683.31;;;-2.46;67.19
67517;BME280;54359;59.124;37.910;2023-02-28T15:36:34;98680.16;;;-2.61;66.60
67517;BME280;54359;59.124;37.910;2023-02-28T15:39:16;98683.84;;;-2.53;66.47
67517;BME280;54359;59.124;37.910;2023-02-28T15:41:47;98650.47;;;-2.70;66.31
67517;BME280;54359;59.124;37.910;2023-02-28T15:47:32;98682.69;;;-2.61;67.26
67517;BME280;54359;59.124;37.910;2023-02-28T15:49:53;98696.06;;;-2.63;66.20
67517;BME280;54359;59.124;37.910;2023-02-28T15:52:44;98685.00;;;-2.66;66.52
67517;BME280;54359;59.124;37.910;2023-02-28T15:55:11;98687.47;;;-2.68;66.85
67517;BME280;54359;59.124;37.910;2023-02-28T15:57:42;98689.53;;;-2.78;66.49
67517;BME280;54359;59.124;37.910;2023-02-28T16:00:12;98676.22;;;-2.76;66.73
67517;BME280;54359;59.124;37.910;2023-02-28T16:02:42;98674.56;;;-2.75;66.72
67517;BME280;54359;59.124;37.910;2023-02-28T16:07:36;98665.81;;;-2.84;66.58
67517;BME280;54359;59.124;37.910;2023-02-28T16:10:06;98683.69;;;-2.77;66.90
67517;BME280;54359;59.124;37.910;2023-02-28T16:12:36;98696.25;;;-2.77;66.26
67517;BME280;54359;59.124;37.910;2023-02-28T16:15:19;98687.00;;;-2.78;66.93
67517;BME280;54359;59.124;37.910;2023-02-28T16:17:53;98693.44;;;-2.85;66.50
67517;BME280;54359;59.124;37.910;2023-02-28T16:20:25;98685.16;;;-2.83;67.11
67517;BME280;54359;59.124;37.910;2023-02-28T16:22:54;98687.59;;;-2.84;67.45
67517;BME280;54359;59.124;37.910;2023-02-28T16:25:42;98686.22;;;-2.97;66.07
67517;BME280;54359;59.124;37.910;2023-02-28T16:28:30;98665.84;;;-3.03;66.54
67517;BME280;54359;59.124;37.910;2023-02-28T16:31:00;98684.63;;;-2.95;66.54
67517;BME280;54359;59.124;37.910;2023-02-28T16:33:29;98691.34;;;-2.95;67.13
67517;BME280;54359;59.124;37.910;2023-02-28T16:35:57;98673.31;;;-3.05;66.61
67517;BME280;54359;59.124;37.910;2023-02-28T16:38:29;98692.78;;;-3.00;67.08
67517;BME280;54359;59.124;37.910;2023-02-28T16:41:00;98682.53;;;-3.05;67.40
67517;BME280;54359;59.124;37.910;2023-02-28T16:43:33;98685.78;;;-3.08;66.73
67517;BME280;54359;59.124;37.910;2023-02-28T16:46:04;98670.53;;;-3.11;66.81
67517;BME280;54359;59.124;37.910;2023-02-28T16:48:32;98672.22;;;-3.11;66.46